sensor_id;sensor_type;location;lat;lon;timestamp;P1;durP1;ratioP1;P2;durP2;ratioP2
58974;SDS011;44751;52.236;5.178;2023-06-04T00:01:08;2.75;;;1.20;;
58974;SDS011;44751;52.236;5.178;2023-06-04T00:03:35;3.10;;;1.40;;
58974;SDS011;44751;52.236;5.178;2023-06-04T00:06:02;2.67;;;1.30;;
58974;SDS011;44751;52.236;5.178;2023-06-04T00:08:28;2.20;;;1.27;;
58974;SDS011;44751;52.236;5.178;2023-06-04T00:10:59;2.35;;;1.30;;
58974;SDS011;44751;52.236;5.178;2023-06-04T00:13:25;2.45;;;1.25;;
58974;SDS011;44751;52.236;5.178;2023-06-04T00:15:52;5.13;;;1.40;;
58974;SDS011;44751;52.236;5.178;2023-06-04T00:18:18;1.70;;;1.25;;
58974;SDS011;44751;52.236;5.178;2023-06-04T00:20:45;2.17;;;1.25;;
58974;SDS011;44751;52.236;5.178;2023-06-04T00:23:14;2.00;;;1.20;;
58974;SDS011;44751;52.236;5.178;2023-06-04T00:25:43;1.38;;;1.10;;
58974;SDS011;44751;52.236;5.178;2023-06-04T00:28:09;2.13;;;0.98;;
58974;SDS011;44751;52.236;5.178;2023-06-04T00:30:36;2.45;;;1.33;;
58974;SDS011;44751;52.236;5.178;2023-06-04T00:33:02;2.22;;;1.20;;
58974;SDS011;44751;52.236;5.178;2023-06-04T00:35:31;1.77;;;1.10;;
58974;SDS011;44751;52.236;5.178;2023-06-04T00:38:02;2.33;;;1.05;;
58974;SDS011;44751;52.236;5.178;2023-06-04T00:40:29;2.55;;;1.35;;
58974;SDS011;44751;52.236;5.178;2023-06-04T00:42:55;3.13;;;1.20;;
58974;SDS011;44751;52.236;5.178;2023-06-04T00:45:22;3.58;;;1.20;;
58974;SDS011;44751;52.236;5.178;2023-06-04T00:47:56;1.52;;;1.25;;
58974;SDS011;44751;52.236;5.178;2023-06-04T00:50:22;2.72;;;1.13;;
58974;SDS011;44751;52.236;5.178;2023-06-04T00:52:50;4.57;;;1.33;;
58974;SDS011;44751;52.236;5.178;2023-06-04T00:55:17;1.77;;;1.40;;
58974;SDS011;44751;52.236;5.178;2023-06-04T00:57:44;1.58;;;1.20;;
58974;SDS011;44751;52.236;5.178;2023-06-04T01:00:11;1.60;;;1.17;;
58974;SDS011;44751;52.236;5.178;2023-06-04T01:02:41;2.45;;;1.17;;
58974;SDS011;44751;52.236;5.178;2023-06-04T01:07:55;1.92;;;1.05;;
58974;SDS011;44751;52.236;5.178;2023-06-04T01:10:23;2.20;;;1.45;;
58974;SDS011;44751;52.236;5.178;2023-06-04T01:12:50;1.20;;;1.10;;
58974;SDS011;44751;52.236;5.178;2023-06-04T01:15:18;2.17;;;1.30;;
58974;SDS011;44751;52.236;5.178;2023-06-04T01:17:49;2.50;;;1.10;;
58974;SDS011;44751;52.236;5.178;2023-06-04T01:23:46;5.53;;;1.33;;
58974;SDS011;44751;52.236;5.178;2023-06-04T01:26:03;2.45;;;1.30;;
58974;SDS011;44751;52.236;5.178;2023-06-04T01:28:32;3.63;;;1.40;;
58974;SDS011;44751;52.236;5.178;2023-06-04T01:30:59;2.60;;;1.30;;
58974;SDS011;44751;52.236;5.178;2023-06-04T01:33:27;3.30;;;1.27;;
58974;SDS011;44751;52.236;5.178;2023-06-04T01:35:54;2.45;;;1.23;;
58974;SDS011;44751;52.236;5.178;2023-06-04T01:38:21;2.90;;;1.35;;
58974;SDS011;44751;52.236;5.178;2023-06-04T01:40:48;3.15;;;1.40;;
58974;SDS011;44751;52.236;5.178;2023-06-04T01:43:15;1.55;;;1.10;;
58974;SDS011;44751;52.236;5.178;2023-06-04T01:45:42;1.67;;;1.10;;
58974;SDS011;44751;52.236;5.178;2023-06-04T01:48:09;4.38;;;1.30;;
58974;SDS011;44751;52.236;5.178;2023-06-04T01:50:35;3.10;;;1.23;;
58974;SDS011;44751;52.236;5.178;2023-06-04T01:53:02;1.95;;;1.05;;
58974;SDS011;44751;52.236;5.178;2023-06-04T01:55:28;3.35;;;1.40;;
58974;SDS011;44751;52.236;5.178;2023-06-04T01:57:58;2.13;;;1.20;;
58974;SDS011;44751;52.236;5.178;2023-06-04T02:00:27;1.95;;;1.20;;
58974;SDS011;44751;52.236;5.178;2023-06-04T02:02:55;2.22;;;1.08;;
58974;SDS011;44751;52.236;5.178;2023-06-04T02:05:21;1.88;;;0.95;;
58974;SDS011;44751;52.236;5.178;2023-06-04T02:07:48;2.45;;;1.08;;
58974;SDS011;44751;52.236;5.178;2023-06-04T02:10:15;2.35;;;1.25;;
58974;SDS011;44751;52.236;5.178;2023-06-04T02:12:59;3.00;;;1.05;;
58974;SDS011;44751;52.236;5.178;2023-06-04T02:15:29;2.83;;;1.20;;
58974;SDS011;44751;52.236;5.178;2023-06-04T02:17:57;2.53;;;1.10;;
58974;SDS011;44751;52.236;5.178;2023-06-04T02:20:30;2.08;;;1.20;;
58974;SDS011;44751;52.236;5.178;2023-06-04T02:22:56;2.58;;;1.20;;
58974;SDS011;44751;52.236;5.178;2023-06-04T02:25:23;2.55;;;1.30;;
58974;SDS011;44751;52.236;5.178;2023-06-04T02:27:50;2.38;;;1.10;;
58974;SDS011;44751;52.236;5.178;2023-06-04T02:30:16;2.60;;;0.95;;
58974;SDS011;44751;52.236;5.178;2023-06-04T02:32:43;2.17;;;1.05;;
58974;SDS011;44751;52.236;5.178;2023-06-04T02:35:15;1.27;;;1.00;;
58974;SDS011;44751;52.236;5.178;2023-06-04T02:37:42;1.25;;;1.10;;
58974;SDS011;44751;52.236;5.178;2023-06-04T02:40:09;2.05;;;1.35;;
58974;SDS011;44751;52.236;5.178;2023-06-04T02:42:36;2.80;;;1.02;;
58974;SDS011;44751;52.236;5.178;2023-06-04T02:45:05;5.95;;;1.20;;
58974;SDS011;44751;52.236;5.178;2023-06-04T02:47:32;1.60;;;1.20;;
58974;SDS011;44751;52.236;5.178;2023-06-04T02:49:59;2.17;;;1.30;;
58974;SDS011;44751;52.236;5.178;2023-06-04T02:52:25;2.85;;;1.40;;
58974;SDS011;44751;52.236;5.178;2023-06-04T02:54:52;1.58;;;1.05;;
58974;SDS011;44751;52.236;5.178;2023-06-04T02:57:28;3.30;;;1.63;;
58974;SDS011;44751;52.236;5.178;2023-06-04T02:59:55;3.63;;;1.40;;
58974;SDS011;44751;52.236;5.178;2023-06-04T03:02:21;1.98;;;1.20;;
58974;SDS011;44751;52.236;5.178;2023-06-04T03:04:48;2.58;;;1.38;;
58974;SDS011;44751;52.236;5.178;2023-06-04T03:07:16;2.03;;;1.15;;
58974;SDS011;44751;52.236;5.178;2023-06-04T03:09:45;3.72;;;1.35;;
58974;SDS011;44751;52.236;5.178;2023-06-04T03:12:12;3.30;;;1.73;;
58974;SDS011;44751;52.236;5.178;2023-06-04T03:14:39;1.70;;;1.20;;
58974;SDS011;44751;52.236;5.178;2023-06-04T03:17:05;2.63;;;1.40;;
58974;SDS011;44751;52.236;5.178;2023-06-04T03:19:38;2.55;;;1.60;;
58974;SDS011;44751;52.236;5.178;2023-06-04T03:22:09;2.40;;;1.50;;
58974;SDS011;44751;52.236;5.178;2023-06-04T03:24:36;2.33;;;1.42;;
58974;SDS011;44751;52.236;5.178;2023-06-04T03:27:05;3.65;;;1.50;;
58974;SDS011;44751;52.236;5.178;2023-06-04T03:29:39;2.83;;;1.80;;
58974;SDS011;44751;52.236;5.178;2023-06-04T03:32:06;3.20;;;1.50;;
58974;SDS011;44751;52.236;5.178;2023-06-04T03:34:33;2.92;;;1.50;;
58974;SDS011;44751;52.236;5.178;2023-06-04T03:37:00;4.75;;;1.60;;
58974;SDS011;44751;52.236;5.178;2023-06-04T03:39:26;1.75;;;1.55;;
58974;SDS011;44751;52.236;5.178;2023-06-04T03:41:56;2.22;;;1.33;;
58974;SDS011;44751;52.236;5.178;2023-06-04T03:44:23;3.28;;;1.70;;
58974;SDS011;44751;52.236;5.178;2023-06-04T03:46:50;6.88;;;1.92;;
58974;SDS011;44751;52.236;5.178;2023-06-04T03:49:17;3.17;;;1.50;;
58974;SDS011;44751;52.236;5.178;2023-06-04T03:51:44;3.15;;;1.73;;
58974;SDS011;44751;52.236;5.178;2023-06-04T03:54:11;4.80;;;2.05;;
58974;SDS011;44751;52.236;5.178;2023-06-04T03:56:41;2.70;;;1.63;;
58974;SDS011;44751;52.236;5.178;2023-06-04T03:59:11;4.43;;;1.80;;
58974;SDS011;44751;52.236;5.178;2023-06-04T04:01:38;5.10;;;2.10;;
58974;SDS011;44751;52.236;5.178;2023-06-04T04:04:04;3.42;;;1.70;;
58974;SDS011;44751;52.236;5.178;2023-06-04T04:06:31;3.83;;;1.70;;
58974;SDS011;44751;52.236;5.178;2023-06-04T04:08:59;3.42;;;1.80;;
58974;SDS011;44751;52.236;5.178;2023-06-04T04:11:25;2.60;;;1.88;;
58974;SDS011;44751;52.236;5.178;2023-06-04T04:13:52;3.22;;;1.60;;
58974;SDS011;44751;52.236;5.178;2023-06-04T04:16:19;3.00;;;2.00;;
58974;SDS011;44751;52.236;5.178;2023-06-04T04:18:47;4.75;;;1.98;;
58974;SDS011;44751;52.236;5.178;2023-06-04T04:21:18;2.40;;;2.10;;
58974;SDS011;44751;52.236;5.178;2023-06-04T04:23:46;4.13;;;2.00;;
58974;SDS011;44751;52.236;5.178;2023-06-04T04:26:12;4.18;;;1.95;;
58974;SDS011;44751;52.236;5.178;2023-06-04T04:28:41;2.65;;;1.67;;
58974;SDS011;44751;52.236;5.178;2023-06-04T04:31:09;4.07;;;2.20;;
58974;SDS011;44751;52.236;5.178;2023-06-04T04:33:39;4.40;;;2.25;;
58974;SDS011;44751;52.236;5.178;2023-06-04T04:36:06;5.28;;;2.17;;
58974;SDS011;44751;52.236;5.178;2023-06-04T04:38:37;5.38;;;2.22;;
58974;SDS011;44751;52.236;5.178;2023-06-04T04:41:10;5.13;;;2.33;;
58974;SDS011;44751;52.236;5.178;2023-06-04T04:43:37;3.45;;;2.03;;
58974;SDS011;44751;52.236;5.178;2023-06-04T04:46:07;3.55;;;2.05;;
58974;SDS011;44751;52.236;5.178;2023-06-04T04:48:34;3.40;;;2.28;;
58974;SDS011;44751;52.236;5.178;2023-06-04T04:51:08;3.80;;;2.20;;
58974;SDS011;44751;52.236;5.178;2023-06-04T04:53:35;4.38;;;2.13;;
58974;SDS011;44751;52.236;5.178;2023-06-04T04:56:01;3.67;;;2.08;;
58974;SDS011;44751;52.236;5.178;2023-06-04T04:58:28;4.25;;;1.90;;
58974;SDS011;44751;52.236;5.178;2023-06-04T05:00:54;6.18;;;2.05;;
58974;SDS011;44751;52.236;5.178;2023-06-04T05:03:23;4.57;;;2.28;;
58974;SDS011;44751;52.236;5.178;2023-06-04T05:05:52;5.20;;;2.42;;
58974;SDS011;44751;52.236;5.178;2023-06-04T05:08:19;4.68;;;2.35;;
58974;SDS011;44751;52.236;5.178;2023-06-04T05:10:45;4.68;;;2.45;;
58974;SDS011;44751;52.236;5.178;2023-06-04T05:13:12;4.18;;;2.30;;
58974;SDS011;44751;52.236;5.178;2023-06-04T05:15:47;5.82;;;2.60;;
58974;SDS011;44751;52.236;5.178;2023-06-04T05:18:17;6.22;;;2.10;;
58974;SDS011;44751;52.236;5.178;2023-06-04T05:20:46;4.55;;;2.20;;
58974;SDS011;44751;52.236;5.178;2023-06-04T05:23:13;4.20;;;2.00;;
58974;SDS011;44751;52.236;5.178;2023-06-04T05:25:39;4.18;;;2.00;;
58974;SDS011;44751;52.236;5.178;2023-06-04T05:28:06;5.43;;;2.47;;
58974;SDS011;44751;52.236;5.178;2023-06-04T05:30:33;4.43;;;1.90;;
58974;SDS011;44751;52.236;5.178;2023-06-04T05:32:59;9.23;;;2.35;;
58974;SDS011;44751;52.236;5.178;2023-06-04T05:35:26;7.43;;;2.90;;
58974;SDS011;44751;52.236;5.178;2023-06-04T05:37:54;5.00;;;1.88;;
58974;SDS011;44751;52.236;5.178;2023-06-04T05:40:28;5.15;;;1.90;;
58974;SDS011;44751;52.236;5.178;2023-06-04T05:42:55;5.22;;;2.00;;
58974;SDS011;44751;52.236;5.178;2023-06-04T05:45:21;5.07;;;2.05;;
58974;SDS011;44751;52.236;5.178;2023-06-04T05:47:48;4.95;;;1.90;;
58974;SDS011;44751;52.236;5.178;2023-06-04T05:50:17;4.70;;;2.05;;
58974;SDS011;44751;52.236;5.178;2023-06-04T05:52:43;6.97;;;2.97;;
58974;SDS011;44751;52.236;5.178;2023-06-04T05:55:10;4.65;;;2.28;;
58974;SDS011;44751;52.236;5.178;2023-06-04T05:57:36;7.00;;;2.00;;
58974;SDS011;44751;52.236;5.178;2023-06-04T06:00:03;3.88;;;1.70;;
58974;SDS011;44751;52.236;5.178;2023-06-04T06:02:33;6.13;;;1.90;;
58974;SDS011;44751;52.236;5.178;2023-06-04T06:05:03;6.47;;;1.77;;
58974;SDS011;44751;52.236;5.178;2023-06-04T06:07:30;4.45;;;1.83;;
58974;SDS011;44751;52.236;5.178;2023-06-04T06:09:57;4.60;;;2.00;;
58974;SDS011;44751;52.236;5.178;2023-06-04T06:12:26;6.10;;;1.70;;
58974;SDS011;44751;52.236;5.178;2023-06-04T06:14:52;4.32;;;1.65;;
58974;SDS011;44751;52.236;5.178;2023-06-04T06:17:21;3.10;;;1.50;;
58974;SDS011;44751;52.236;5.178;2023-06-04T06:19:47;3.17;;;1.70;;
58974;SDS011;44751;52.236;5.178;2023-06-04T06:22:14;7.07;;;1.95;;
58974;SDS011;44751;52.236;5.178;2023-06-04T06:24:43;3.08;;;1.83;;
58974;SDS011;44751;52.236;5.178;2023-06-04T06:27:13;3.58;;;1.65;;
58974;SDS011;44751;52.236;5.178;2023-06-04T06:29:41;4.30;;;1.77;;
58974;SDS011;44751;52.236;5.178;2023-06-04T06:32:08;3.67;;;1.60;;
58974;SDS011;44751;52.236;5.178;2023-06-04T06:34:36;7.15;;;1.63;;
58974;SDS011;44751;52.236;5.178;2023-06-04T06:37:03;5.20;;;1.73;;
58974;SDS011;44751;52.236;5.178;2023-06-04T06:39:31;4.63;;;1.85;;
58974;SDS011;44751;52.236;5.178;2023-06-04T06:41:58;5.53;;;1.40;;
58974;SDS011;44751;52.236;5.178;2023-06-04T06:44:24;2.80;;;1.55;;
58974;SDS011;44751;52.236;5.178;2023-06-04T06:47:10;3.03;;;1.40;;
58974;SDS011;44751;52.236;5.178;2023-06-04T06:49:46;4.57;;;1.50;;
58974;SDS011;44751;52.236;5.178;2023-06-04T06:52:13;4.38;;;1.92;;
58974;SDS011;44751;52.236;5.178;2023-06-04T06:54:44;5.47;;;2.10;;
58974;SDS011;44751;52.236;5.178;2023-06-04T06:57:13;3.17;;;1.45;;
58974;SDS011;44751;52.236;5.178;2023-06-04T06:59:54;4.43;;;1.70;;
58974;SDS011;44751;52.236;5.178;2023-06-04T07:02:37;3.10;;;1.52;;
58974;SDS011;44751;52.236;5.178;2023-06-04T07:05:17;2.53;;;1.55;;
58974;SDS011;44751;52.236;5.178;2023-06-04T07:07:52;6.18;;;1.90;;
58974;SDS011;44751;52.236;5.178;2023-06-04T07:10:22;3.35;;;1.60;;
58974;SDS011;44751;52.236;5.178;2023-06-04T07:13:02;4.47;;;1.77;;
58974;SDS011;44751;52.236;5.178;2023-06-04T07:15:36;2.95;;;1.70;;
58974;SDS011;44751;52.236;5.178;2023-06-04T07:18:09;5.63;;;1.70;;
58974;SDS011;44751;52.236;5.178;2023-06-04T07:20:36;4.18;;;1.40;;
58974;SDS011;44751;52.236;5.178;2023-06-04T07:23:02;5.03;;;1.50;;
58974;SDS011;44751;52.236;5.178;2023-06-04T07:25:29;3.05;;;1.50;;
58974;SDS011;44751;52.236;5.178;2023-06-04T07:27:56;3.13;;;1.48;;
58974;SDS011;44751;52.236;5.178;2023-06-04T07:30:23;2.53;;;1.50;;
58974;SDS011;44751;52.236;5.178;2023-06-04T07:32:57;3.22;;;1.80;;
58974;SDS011;44751;52.236;5.178;2023-06-04T07:35:24;3.03;;;1.65;;
58974;SDS011;44751;52.236;5.178;2023-06-04T07:37:50;3.35;;;1.45;;
58974;SDS011;44751;52.236;5.178;2023-06-04T07:40:17;3.20;;;1.30;;
58974;SDS011;44751;52.236;5.178;2023-06-04T07:42:47;5.68;;;1.63;;
58974;SDS011;44751;52.236;5.178;2023-06-04T07:45:14;2.58;;;1.35;;
58974;SDS011;44751;52.236;5.178;2023-06-04T07:47:41;6.45;;;1.90;;
58974;SDS011;44751;52.236;5.178;2023-06-04T07:50:10;3.13;;;1.48;;
58974;SDS011;44751;52.236;5.178;2023-06-04T07:52:37;4.82;;;1.50;;
58974;SDS011;44751;52.236;5.178;2023-06-04T07:55:05;3.30;;;1.17;;
58974;SDS011;44751;52.236;5.178;2023-06-04T07:57:33;4.18;;;1.52;;
58974;SDS011;44751;52.236;5.178;2023-06-04T08:00:01;3.55;;;1.42;;
58974;SDS011;44751;52.236;5.178;2023-06-04T08:02:30;4.38;;;1.40;;
58974;SDS011;44751;52.236;5.178;2023-06-04T08:04:57;4.93;;;1.65;;
58974;SDS011;44751;52.236;5.178;2023-06-04T08:07:23;3.05;;;1.70;;
58974;SDS011;44751;52.236;5.178;2023-06-04T08:09:50;3.60;;;1.73;;
58974;SDS011;44751;52.236;5.178;2023-06-04T08:12:16;5.40;;;1.60;;
58974;SDS011;44751;52.236;5.178;2023-06-04T08:14:43;5.18;;;1.45;;
58974;SDS011;44751;52.236;5.178;2023-06-04T08:17:10;3.17;;;1.30;;
58974;SDS011;44751;52.236;5.178;2023-06-04T08:19:42;4.87;;;1.60;;
58974;SDS011;44751;52.236;5.178;2023-06-04T08:22:08;3.10;;;1.60;;
58974;SDS011;44751;52.236;5.178;2023-06-04T08:24:36;2.50;;;1.45;;
58974;SDS011;44751;52.236;5.178;2023-06-04T08:27:03;4.18;;;1.58;;
58974;SDS011;44751;52.236;5.178;2023-06-04T08:29:29;2.22;;;1.20;;
58974;SDS011;44751;52.236;5.178;2023-06-04T08:32:00;4.18;;;1.38;;
58974;SDS011;44751;52.236;5.178;2023-06-04T08:34:27;4.32;;;1.55;;
58974;SDS011;44751;52.236;5.178;2023-06-04T08:36:53;4.07;;;1.30;;
58974;SDS011;44751;52.236;5.178;2023-06-04T08:39:20;3.60;;;1.30;;
58974;SDS011;44751;52.236;5.178;2023-06-04T08:41:54;3.47;;;1.20;;
58974;SDS011;44751;52.236;5.178;2023-06-04T08:44:26;3.00;;;1.40;;
58974;SDS011;44751;52.236;5.178;2023-06-04T08:46:53;3.55;;;1.20;;
58974;SDS011;44751;52.236;5.178;2023-06-04T08:49:37;4.43;;;1.40;;
58974;SDS011;44751;52.236;5.178;2023-06-04T08:52:07;3.83;;;1.92;;
58974;SDS011;44751;52.236;5.178;2023-06-04T08:54:33;4.35;;;1.55;;
58974;SDS011;44751;52.236;5.178;2023-06-04T08:57:00;4.10;;;1.45;;
58974;SDS011;44751;52.236;5.178;2023-06-04T08:59:40;3.95;;;1.55;;
58974;SDS011;44751;52.236;5.178;2023-06-04T09:02:08;4.13;;;1.50;;
58974;SDS011;44751;52.236;5.178;2023-06-04T09:04:35;3.05;;;1.33;;
58974;SDS011;44751;52.236;5.178;2023-06-04T09:07:02;4.63;;;1.35;;
58974;SDS011;44751;52.236;5.178;2023-06-04T09:09:30;3.22;;;1.38;;
58974;SDS011;44751;52.236;5.178;2023-06-04T09:11:58;3.92;;;1.63;;
58974;SDS011;44751;52.236;5.178;2023-06-04T09:14:27;3.70;;;1.50;;
58974;SDS011;44751;52.236;5.178;2023-06-04T09:16:55;5.18;;;1.10;;
58974;SDS011;44751;52.236;5.178;2023-06-04T09:19:33;2.75;;;1.48;;
58974;SDS011;44751;52.236;5.178;2023-06-04T09:22:00;3.20;;;1.38;;
58974;SDS011;44751;52.236;5.178;2023-06-04T09:24:40;3.03;;;1.30;;
58974;SDS011;44751;52.236;5.178;2023-06-04T09:27:15;3.40;;;1.10;;
58974;SDS011;44751;52.236;5.178;2023-06-04T09:29:49;4.88;;;1.48;;
58974;SDS011;44751;52.236;5.178;2023-06-04T09:32:33;4.75;;;1.35;;
58974;SDS011;44751;52.236;5.178;2023-06-04T09:35:13;4.53;;;1.30;;
58974;SDS011;44751;52.236;5.178;2023-06-04T09:37:52;3.33;;;1.35;;
58974;SDS011;44751;52.236;5.178;2023-06-04T09:40:34;4.80;;;1.25;;
58974;SDS011;44751;52.236;5.178;2023-06-04T09:43:04;5.60;;;1.38;;
58974;SDS011;44751;52.236;5.178;2023-06-04T09:45:34;4.28;;;1.40;;
58974;SDS011;44751;52.236;5.178;2023-06-04T09:48:05;3.08;;;1.50;;
58974;SDS011;44751;52.236;5.178;2023-06-04T09:50:34;3.50;;;1.38;;
58974;SDS011;44751;52.236;5.178;2023-06-04T09:53:13;3.17;;;1.10;;
58974;SDS011;44751;52.236;5.178;2023-06-04T09:55:42;2.55;;;1.40;;
58974;SDS011;44751;52.236;5.178;2023-06-04T09:58:11;2.92;;;1.23;;
58974;SDS011;44751;52.236;5.178;2023-06-04T10:00:38;3.22;;;1.52;;
58974;SDS011;44751;52.236;5.178;2023-06-04T10:03:06;1.88;;;1.20;;
58974;SDS011;44751;52.236;5.178;2023-06-04T10:05:56;4.60;;;1.38;;
58974;SDS011;44751;52.236;5.178;2023-06-04T10:08:25;3.95;;;1.70;;
58974;SDS011;44751;52.236;5.178;2023-06-04T10:10:56;3.20;;;1.50;;
58974;SDS011;44751;52.236;5.178;2023-06-04T10:16:30;1.65;;;1.25;;
58974;SDS011;44751;52.236;5.178;2023-06-04T10:18:57;1.85;;;1.15;;
58974;SDS011;44751;52.236;5.178;2023-06-04T10:21:28;4.60;;;1.42;;
58974;SDS011;44751;52.236;5.178;2023-06-04T10:24:00;2.35;;;1.20;;
58974;SDS011;44751;52.236;5.178;2023-06-04T10:26:27;4.38;;;1.50;;
58974;SDS011;44751;52.236;5.178;2023-06-04T10:28:55;3.83;;;2.05;;
58974;SDS011;44751;52.236;5.178;2023-06-04T10:31:23;3.92;;;1.40;;
58974;SDS011;44751;52.236;5.178;2023-06-04T10:33:55;2.72;;;1.25;;
58974;SDS011;44751;52.236;5.178;2023-06-04T10:36:23;4.97;;;1.30;;
58974;SDS011;44751;52.236;5.178;2023-06-04T10:38:56;4.68;;;1.50;;
58974;SDS011;44751;52.236;5.178;2023-06-04T10:41:24;4.10;;;1.40;;
58974;SDS011;44751;52.236;5.178;2023-06-04T10:43:52;2.08;;;1.20;;
58974;SDS011;44751;52.236;5.178;2023-06-04T10:46:37;3.90;;;1.50;;
58974;SDS011;44751;52.236;5.178;2023-06-04T10:49:08;4.47;;;1.65;;
58974;SDS011;44751;52.236;5.178;2023-06-04T10:51:36;4.50;;;2.05;;
58974;SDS011;44751;52.236;5.178;2023-06-04T10:54:03;4.53;;;2.10;;
58974;SDS011;44751;52.236;5.178;2023-06-04T10:56:31;6.25;;;1.70;;
58974;SDS011;44751;52.236;5.178;2023-06-04T10:59:13;6.78;;;2.10;;
58974;SDS011;44751;52.236;5.178;2023-06-04T11:01:41;4.88;;;1.85;;
58974;SDS011;44751;52.236;5.178;2023-06-04T11:04:18;3.55;;;1.50;;
58974;SDS011;44751;52.236;5.178;2023-06-04T11:06:46;5.63;;;2.20;;
58974;SDS011;44751;52.236;5.178;2023-06-04T11:09:13;4.85;;;2.03;;
58974;SDS011;44751;52.236;5.178;2023-06-04T11:11:43;3.90;;;1.77;;
58974;SDS011;44751;52.236;5.178;2023-06-04T11:14:10;8.07;;;2.67;;
58974;SDS011;44751;52.236;5.178;2023-06-04T11:16:38;5.28;;;2.17;;
58974;SDS011;44751;52.236;5.178;2023-06-04T11:19:05;4.38;;;2.22;;
58974;SDS011;44751;52.236;5.178;2023-06-04T11:21:35;5.03;;;1.90;;
58974;SDS011;44751;52.236;5.178;2023-06-04T11:24:03;4.70;;;1.98;;
58974;SDS011;44751;52.236;5.178;2023-06-04T11:26:48;5.85;;;2.35;;
58974;SDS011;44751;52.236;5.178;2023-06-04T11:29:14;5.28;;;2.13;;
58974;SDS011;44751;52.236;5.178;2023-06-04T11:31:42;6.25;;;2.00;;
58974;SDS011;44751;52.236;5.178;2023-06-04T11:34:22;4.57;;;2.10;;
58974;SDS011;44751;52.236;5.178;2023-06-04T11:36:49;5.68;;;2.35;;
58974;SDS011;44751;52.236;5.178;2023-06-04T11:39:17;3.60;;;1.90;;
58974;SDS011;44751;52.236;5.178;2023-06-04T11:41:47;4.68;;;2.40;;
58974;SDS011;44751;52.236;5.178;2023-06-04T11:44:19;6.32;;;2.25;;
58974;SDS011;44751;52.236;5.178;2023-06-04T11:46:46;6.88;;;1.85;;
58974;SDS011;44751;52.236;5.178;2023-06-04T11:49:17;3.65;;;2.00;;
58974;SDS011;44751;52.236;5.178;2023-06-04T11:51:51;6.68;;;2.00;;
58974;SDS011;44751;52.236;5.178;2023-06-04T11:54:20;5.90;;;1.85;;
58974;SDS011;44751;52.236;5.178;2023-06-04T11:56:50;5.80;;;1.92;;
58974;SDS011;44751;52.236;5.178;2023-06-04T11:59:18;6.13;;;2.22;;
58974;SDS011;44751;52.236;5.178;2023-06-04T12:01:50;6.00;;;2.00;;
58974;SDS011;44751;52.236;5.178;2023-06-04T12:04:30;5.45;;;1.75;;
58974;SDS011;44751;52.236;5.178;2023-06-04T12:07:04;5.82;;;1.73;;
58974;SDS011;44751;52.236;5.178;2023-06-04T12:09:34;5.75;;;1.77;;
58974;SDS011;44751;52.236;5.178;2023-06-04T12:12:03;5.72;;;2.10;;
58974;SDS011;44751;52.236;5.178;2023-06-04T12:14:32;5.88;;;2.15;;
58974;SDS011;44751;52.236;5.178;2023-06-04T12:17:06;4.95;;;2.10;;
58974;SDS011;44751;52.236;5.178;2023-06-04T12:19:47;2.50;;;1.38;;
58974;SDS011;44751;52.236;5.178;2023-06-04T12:22:20;4.53;;;1.90;;
58974;SDS011;44751;52.236;5.178;2023-06-04T12:24:49;4.15;;;1.80;;
58974;SDS011;44751;52.236;5.178;2023-06-04T12:27:19;4.80;;;2.08;;
58974;SDS011;44751;52.236;5.178;2023-06-04T12:30:00;3.83;;;1.88;;
58974;SDS011;44751;52.236;5.178;2023-06-04T12:32:28;2.78;;;1.40;;
58974;SDS011;44751;52.236;5.178;2023-06-04T12:34:55;2.97;;;1.60;;
58974;SDS011;44751;52.236;5.178;2023-06-04T12:37:22;5.35;;;1.50;;
58974;SDS011;44751;52.236;5.178;2023-06-04T12:39:56;4.13;;;1.67;;
58974;SDS011;44751;52.236;5.178;2023-06-04T12:42:22;4.90;;;2.03;;
58974;SDS011;44751;52.236;5.178;2023-06-04T12:44:49;3.75;;;1.63;;
58974;SDS011;44751;52.236;5.178;2023-06-04T12:47:16;3.95;;;1.60;;
58974;SDS011;44751;52.236;5.178;2023-06-04T12:49:43;4.53;;;1.58;;
58974;SDS011;44751;52.236;5.178;2023-06-04T12:52:10;3.38;;;1.70;;
58974;SDS011;44751;52.236;5.178;2023-06-04T12:54:39;3.50;;;1.58;;
58974;SDS011;44751;52.236;5.178;2023-06-04T12:57:06;3.78;;;1.50;;
58974;SDS011;44751;52.236;5.178;2023-06-04T12:59:33;4.95;;;1.63;;
58974;SDS011;44751;52.236;5.178;2023-06-04T13:01:59;4.20;;;1.77;;
58974;SDS011;44751;52.236;5.178;2023-06-04T13:04:28;5.15;;;1.70;;
58974;SDS011;44751;52.236;5.178;2023-06-04T13:06:57;3.60;;;1.30;;
58974;SDS011;44751;52.236;5.178;2023-06-04T13:09:25;5.90;;;1.45;;
58974;SDS011;44751;52.236;5.178;2023-06-04T13:11:53;3.95;;;1.98;;
58974;SDS011;44751;52.236;5.178;2023-06-04T13:14:22;4.40;;;1.58;;
58974;SDS011;44751;52.236;5.178;2023-06-04T13:16:49;4.95;;;1.70;;
58974;SDS011;44751;52.236;5.178;2023-06-04T13:19:16;2.42;;;1.60;;
58974;SDS011;44751;52.236;5.178;2023-06-04T13:21:44;3.55;;;1.40;;
58974;SDS011;44751;52.236;5.178;2023-06-04T13:24:11;3.63;;;1.60;;
58974;SDS011;44751;52.236;5.178;2023-06-04T13:26:55;7.13;;;1.80;;
58974;SDS011;44751;52.236;5.178;2023-06-04T13:29:23;3.72;;;1.55;;
58974;SDS011;44751;52.236;5.178;2023-06-04T13:31:49;4.80;;;1.42;;
58974;SDS011;44751;52.236;5.178;2023-06-04T13:34:18;4.78;;;1.55;;
58974;SDS011;44751;52.236;5.178;2023-06-04T13:36:48;3.63;;;1.50;;
58974;SDS011;44751;52.236;5.178;2023-06-04T13:39:14;4.07;;;1.65;;
58974;SDS011;44751;52.236;5.178;2023-06-04T13:41:41;4.40;;;1.73;;
58974;SDS011;44751;52.236;5.178;2023-06-04T13:44:07;4.63;;;1.50;;
58974;SDS011;44751;52.236;5.178;2023-06-04T13:46:34;5.90;;;1.48;;
58974;SDS011;44751;52.236;5.178;2023-06-04T13:49:06;3.08;;;1.48;;
58974;SDS011;44751;52.236;5.178;2023-06-04T13:51:33;4.68;;;1.58;;
58974;SDS011;44751;52.236;5.178;2023-06-04T13:53:59;3.38;;;1.73;;
58974;SDS011;44751;52.236;5.178;2023-06-04T13:56:26;2.70;;;1.27;;
58974;SDS011;44751;52.236;5.178;2023-06-04T13:58:55;7.57;;;3.92;;
58974;SDS011;44751;52.236;5.178;2023-06-04T14:01:24;4.50;;;2.45;;
58974;SDS011;44751;52.236;5.178;2023-06-04T14:03:51;3.58;;;1.52;;
58974;SDS011;44751;52.236;5.178;2023-06-04T14:06:18;5.07;;;2.47;;
58974;SDS011;44751;52.236;5.178;2023-06-04T14:08:45;6.32;;;2.38;;
58974;SDS011;44751;52.236;5.178;2023-06-04T14:11:14;3.28;;;1.77;;
58974;SDS011;44751;52.236;5.178;2023-06-04T14:16:11;2.55;;;1.15;;
58974;SDS011;44751;52.236;5.178;2023-06-04T14:18:38;4.32;;;1.58;;
58974;SDS011;44751;52.236;5.178;2023-06-04T14:21:05;5.70;;;2.00;;
58974;SDS011;44751;52.236;5.178;2023-06-04T14:23:43;9.32;;;2.60;;
58974;SDS011;44751;52.236;5.178;2023-06-04T14:26:11;4.95;;;3.03;;
58974;SDS011;44751;52.236;5.178;2023-06-04T14:28:38;9.13;;;6.28;;
58974;SDS011;44751;52.236;5.178;2023-06-04T14:31:05;6.32;;;3.65;;
58974;SDS011;44751;52.236;5.178;2023-06-04T14:33:36;8.32;;;6.32;;
58974;SDS011;44751;52.236;5.178;2023-06-04T14:36:03;5.32;;;2.70;;
58974;SDS011;44751;52.236;5.178;2023-06-04T14:38:30;4.93;;;2.33;;
58974;SDS011;44751;52.236;5.178;2023-06-04T14:40:59;3.97;;;1.77;;
58974;SDS011;44751;52.236;5.178;2023-06-04T14:43:28;3.45;;;1.73;;
58974;SDS011;44751;52.236;5.178;2023-06-04T14:46:02;4.97;;;1.90;;
58974;SDS011;44751;52.236;5.178;2023-06-04T14:48:31;7.88;;;1.58;;
58974;SDS011;44751;52.236;5.178;2023-06-04T14:50:58;3.67;;;1.90;;
58974;SDS011;44751;52.236;5.178;2023-06-04T14:53:32;5.45;;;1.42;;
58974;SDS011;44751;52.236;5.178;2023-06-04T14:56:04;3.60;;;1.63;;
58974;SDS011;44751;52.236;5.178;2023-06-04T14:58:38;3.75;;;1.77;;
58974;SDS011;44751;52.236;5.178;2023-06-04T15:01:07;3.88;;;1.55;;
58974;SDS011;44751;52.236;5.178;2023-06-04T15:03:35;2.65;;;1.70;;
58974;SDS011;44751;52.236;5.178;2023-06-04T15:06:07;4.05;;;1.80;;
58974;SDS011;44751;52.236;5.178;2023-06-04T15:08:34;4.28;;;1.85;;
58974;SDS011;44751;52.236;5.178;2023-06-04T15:11:04;3.60;;;1.67;;